createdAt,value
2017-09-03T00:00:54.633Z,10.73
2017-09-03T00:03:23.027Z,10.20
2017-09-03T00:05:54.164Z,9.77
2017-09-03T00:08:22.614Z,10.50
2017-09-03T00:10:51.093Z,11.53
2017-09-03T00:13:19.636Z,11.03
2017-09-03T00:15:48.121Z,11.23
2017-09-03T00:18:16.511Z,9.80
2017-09-03T00:20:44.910Z,9.97
2017-09-03T00:23:13.342Z,10.50
2017-09-03T00:25:41.740Z,10.10
2017-09-03T00:28:10.161Z,10.80
2017-09-03T00:30:38.573Z,11.37
2017-09-03T00:33:06.956Z,10.10
2017-09-03T00:35:35.364Z,10.73
2017-09-03T00:38:03.831Z,10.90
2017-09-03T00:40:32.296Z,11.00
2017-09-03T00:43:00.706Z,10.87
2017-09-03T00:45:29.113Z,9.43
2017-09-03T00:47:57.512Z,11.60
2017-09-03T00:50:25.909Z,11.00
2017-09-03T00:52:54.427Z,10.43
2017-09-03T00:55:22.839Z,11.80
2017-09-03T00:57:51.259Z,12.37
2017-09-03T01:00:19.706Z,12.13
2017-09-03T01:02:48.122Z,12.07
2017-09-03T01:05:16.567Z,11.00
2017-09-03T01:07:44.998Z,12.23
2017-09-03T01:10:13.396Z,13.00
2017-09-03T01:12:41.848Z,12.60
2017-09-03T01:15:10.337Z,14.50
2017-09-03T01:17:38.770Z,13.57
2017-09-03T01:20:07.220Z,14.40
2017-09-03T01:22:35.606Z,13.00
2017-09-03T01:25:04.082Z,14.37
2017-09-03T01:27:32.511Z,14.03
2017-09-03T01:30:00.956Z,13.67
2017-09-03T01:32:30.409Z,12.40
2017-09-03T01:34:58.837Z,12.03
2017-09-03T01:37:27.218Z,12.53
2017-09-03T01:39:55.607Z,11.80
2017-09-03T01:42:24.068Z,13.57
2017-09-03T01:44:52.461Z,11.40
2017-09-03T01:47:24.504Z,11.50
2017-09-03T01:49:52.936Z,11.37
2017-09-03T01:52:21.334Z,11.87
2017-09-03T01:54:49.746Z,13.00
2017-09-03T01:57:18.120Z,12.27
2017-09-03T01:59:46.492Z,11.80
2017-09-03T02:02:15.029Z,11.13
2017-09-03T02:04:43.453Z,10.80
2017-09-03T02:07:11.845Z,11.33
2017-09-03T02:09:40.263Z,15.33
2017-09-03T02:12:08.661Z,14.50
2017-09-03T02:14:37.090Z,16.20
2017-09-03T02:17:05.501Z,16.70
2017-09-03T02:19:33.897Z,17.13
2017-09-03T02:22:02.278Z,16.63
2017-09-03T02:24:30.687Z,14.50
2017-09-03T02:26:59.177Z,14.43
2017-09-03T02:29:27.569Z,12.70
2017-09-03T02:31:56.006Z,12.80
2017-09-03T02:34:24.473Z,11.10
2017-09-03T02:36:52.844Z,11.40
2017-09-03T02:39:21.253Z,11.30
2017-09-03T02:41:49.744Z,13.00
2017-09-03T02:44:18.141Z,12.03
2017-09-03T02:46:46.528Z,11.10
2017-09-03T02:49:14.954Z,10.90
2017-09-03T02:51:43.356Z,12.20
2017-09-03T02:54:11.758Z,10.97
2017-09-03T02:56:40.200Z,11.77
2017-09-03T02:59:08.615Z,10.90
2017-09-03T03:01:36.994Z,9.97
2017-09-03T03:04:05.408Z,10.17
2017-09-03T03:06:33.801Z,10.20
2017-09-03T03:09:02.255Z,11.90
2017-09-03T03:11:30.635Z,11.63
2017-09-03T03:13:59.001Z,12.37
2017-09-03T03:16:27.388Z,10.50
2017-09-03T03:18:55.821Z,11.53
2017-09-03T03:21:24.289Z,10.87
2017-09-03T03:23:52.730Z,11.00
2017-09-03T03:26:21.098Z,10.33
2017-09-03T03:28:49.527Z,9.90
2017-09-03T03:31:17.917Z,11.07
2017-09-03T03:33:46.393Z,12.17
2017-09-03T03:36:14.793Z,13.87
2017-09-03T03:38:43.166Z,13.70
2017-09-03T03:41:11.582Z,12.80
2017-09-03T03:43:40.038Z,13.70
2017-09-03T03:46:08.417Z,13.10
2017-09-03T03:48:36.922Z,13.43
2017-09-03T03:51:05.344Z,13.13
2017-09-03T03:53:33.743Z,12.60
2017-09-03T03:56:02.212Z,12.10
2017-09-03T03:58:30.690Z,12.90
2017-09-03T04:00:59.068Z,12.00
2017-09-03T04:03:27.453Z,11.07
2017-09-03T04:05:55.881Z,12.23
2017-09-03T04:08:24.279Z,12.50
2017-09-03T04:10:52.731Z,12.73
2017-09-03T04:13:21.190Z,12.20
2017-09-03T04:15:49.574Z,13.33
2017-09-03T04:18:17.969Z,13.03
2017-09-03T04:20:46.412Z,13.50
2017-09-03T04:23:14.840Z,13.23
2017-09-03T04:25:43.251Z,12.87
2017-09-03T04:28:11.629Z,13.70
2017-09-03T04:30:39.996Z,12.80
2017-09-03T04:33:08.425Z,14.20
2017-09-03T04:35:36.939Z,13.57
2017-09-03T04:38:05.399Z,13.70
2017-09-03T04:40:33.801Z,12.43
2017-09-03T04:43:02.177Z,12.10
2017-09-03T04:45:30.601Z,12.90
2017-09-03T04:47:59.170Z,13.13
2017-09-03T04:50:27.619Z,12.10
2017-09-03T04:52:56.012Z,12.63
2017-09-03T04:55:24.935Z,12.60
2017-09-03T04:57:53.354Z,13.30
2017-09-03T05:00:21.932Z,11.87
2017-09-03T05:02:50.336Z,10.70
2017-09-03T05:05:18.783Z,11.10
2017-09-03T05:07:47.198Z,10.70
2017-09-03T05:10:15.589Z,12.20
2017-09-03T05:12:44.003Z,10.50
2017-09-03T05:15:13.180Z,11.77
2017-09-03T05:17:41.616Z,13.53
2017-09-03T05:20:10.040Z,12.90
2017-09-03T05:22:38.431Z,14.80
2017-09-03T05:25:06.850Z,14.17
2017-09-03T05:27:35.375Z,14.93
2017-09-03T05:30:03.764Z,15.20
2017-09-03T05:32:32.143Z,16.10
2017-09-03T05:35:04.364Z,14.53
2017-09-03T05:37:32.755Z,13.70
2017-09-03T05:40:01.153Z,13.33
2017-09-03T05:42:29.573Z,12.53
2017-09-03T05:44:57.986Z,12.70
2017-09-03T05:47:26.421Z,14.30
2017-09-03T05:49:54.800Z,12.80
2017-09-03T05:52:23.219Z,11.90
2017-09-03T05:54:52.228Z,12.87
2017-09-03T05:57:21.206Z,12.73
2017-09-03T05:59:49.693Z,12.50
2017-09-03T06:02:18.147Z,13.00
2017-09-03T06:04:46.573Z,14.07
2017-09-03T06:07:14.971Z,14.47
2017-09-03T06:09:44.414Z,15.33
2017-09-03T06:12:12.883Z,16.50
2017-09-03T06:14:41.374Z,17.23
2017-09-03T06:17:09.789Z,15.83
2017-09-03T06:19:38.197Z,17.83
2017-09-03T06:22:06.635Z,15.60
2017-09-03T06:24:35.127Z,16.03
2017-09-03T06:27:03.591Z,15.73
2017-09-03T06:29:32.087Z,15.07
2017-09-03T06:32:00.491Z,15.33
2017-09-03T06:34:28.929Z,16.60
2017-09-03T06:36:57.357Z,17.07
2017-09-03T06:39:25.790Z,15.87
2017-09-03T06:41:53.484Z,17.40
2017-09-03T06:44:21.928Z,18.57
2017-09-03T06:46:50.398Z,20.77
2017-09-03T06:49:18.927Z,19.63
2017-09-03T06:51:47.411Z,18.60
2017-09-03T06:54:15.821Z,15.93
2017-09-03T06:56:44.320Z,13.53
2017-09-03T06:59:12.731Z,15.07
2017-09-03T07:01:41.540Z,14.53
2017-09-03T07:04:09.979Z,16.53
2017-09-03T07:06:38.455Z,13.47
2017-09-03T07:09:06.877Z,13.80
2017-09-03T07:11:35.276Z,15.03
2017-09-03T07:14:03.726Z,13.87
2017-09-03T07:16:32.237Z,13.23
2017-09-03T07:19:00.696Z,14.70
2017-09-03T07:21:29.123Z,14.30
2017-09-03T07:23:57.501Z,14.50
2017-09-03T07:26:25.928Z,14.83
2017-09-03T07:28:54.412Z,14.87
2017-09-03T07:31:22.825Z,14.07
2017-09-03T07:33:51.245Z,13.50
2017-09-03T07:36:19.631Z,14.10
2017-09-03T07:38:48.051Z,14.77
2017-09-03T07:41:16.489Z,14.07
2017-09-03T07:43:44.901Z,13.90
2017-09-03T07:46:13.277Z,14.20
2017-09-03T07:48:41.701Z,14.10
2017-09-03T07:51:10.088Z,14.30
2017-09-03T07:53:38.491Z,14.30
2017-09-03T07:56:06.903Z,15.00
2017-09-03T07:58:35.287Z,15.50
2017-09-03T08:01:03.686Z,14.00
2017-09-03T08:03:32.202Z,13.80
2017-09-03T08:06:00.632Z,12.60
2017-09-03T08:08:29.023Z,13.23
2017-09-03T08:10:57.439Z,13.62
2017-09-03T08:13:25.827Z,13.80
2017-09-03T08:15:54.289Z,14.52
2017-09-03T08:18:22.676Z,14.30
2017-09-03T08:20:51.065Z,14.82
2017-09-03T08:23:19.471Z,14.43
2017-09-03T08:25:47.889Z,15.93
2017-09-03T08:28:16.378Z,14.10
2017-09-03T08:30:44.849Z,13.82
2017-09-03T08:33:13.242Z,14.15
2017-09-03T08:35:41.677Z,14.98
2017-09-03T08:38:10.104Z,12.45
2017-09-03T08:40:38.527Z,11.60
2017-09-03T08:43:07.035Z,10.95
2017-09-03T08:45:35.757Z,11.43
2017-09-03T08:48:04.169Z,12.95
2017-09-03T08:50:32.623Z,11.82
2017-09-03T08:53:01.102Z,11.02
2017-09-03T08:55:30.383Z,11.12
2017-09-03T08:57:58.821Z,11.00
2017-09-03T09:00:27.225Z,10.40
2017-09-03T09:02:55.622Z,10.65
2017-09-03T09:05:24.086Z,10.23
2017-09-03T09:07:52.585Z,9.95
2017-09-03T09:10:21.083Z,9.48
2017-09-03T09:12:49.543Z,10.75
2017-09-03T09:15:17.955Z,10.27
2017-09-03T09:17:47.894Z,11.82
2017-09-03T09:20:16.403Z,10.90
2017-09-03T09:22:45.706Z,9.70
2017-09-03T09:25:14.156Z,10.67
2017-09-03T09:27:42.666Z,9.70
2017-09-03T09:30:11.065Z,10.10
2017-09-03T09:32:39.471Z,10.02
2017-09-03T09:35:07.891Z,10.98
2017-09-03T09:37:36.357Z,10.93
2017-09-03T09:40:04.802Z,11.50
2017-09-03T09:42:33.222Z,10.83
2017-09-03T09:45:01.670Z,9.73
2017-09-03T09:47:30.113Z,9.43
2017-09-03T09:49:58.558Z,9.23
2017-09-03T09:52:27.912Z,9.23
2017-09-03T09:54:56.435Z,9.10
2017-09-03T09:57:24.899Z,9.70
2017-09-03T09:59:53.364Z,10.20
2017-09-03T10:02:21.819Z,9.03
2017-09-03T10:04:50.318Z,9.60
2017-09-03T10:07:18.730Z,9.67
2017-09-03T10:09:47.153Z,9.30
2017-09-03T10:12:15.625Z,8.73
2017-09-03T10:14:44.037Z,9.07
2017-09-03T10:17:12.485Z,9.43
2017-09-03T10:19:40.945Z,8.83
2017-09-03T10:22:09.379Z,8.47
2017-09-03T10:24:37.803Z,7.77
2017-09-03T10:27:06.250Z,8.63
2017-09-03T10:29:34.746Z,8.87
2017-09-03T10:32:03.135Z,8.37
2017-09-03T10:34:31.550Z,7.67
2017-09-03T10:37:00.048Z,9.00
2017-09-03T10:39:28.427Z,8.30
2017-09-03T10:41:56.913Z,7.27
2017-09-03T10:44:25.408Z,7.23
2017-09-03T10:46:53.853Z,6.77
2017-09-03T10:49:22.333Z,6.33
2017-09-03T10:51:50.793Z,7.13
2017-09-03T10:54:19.241Z,7.00
2017-09-03T10:56:47.673Z,7.20
2017-09-03T10:59:16.070Z,6.80
2017-09-03T11:01:44.491Z,6.47
2017-09-03T11:04:12.887Z,7.23
2017-09-03T11:06:41.347Z,6.10
2017-09-03T11:09:09.782Z,6.00
2017-09-03T11:11:38.181Z,5.83
2017-09-03T11:14:06.612Z,5.50
2017-09-03T11:16:35.051Z,6.67
2017-09-03T11:19:03.470Z,5.17
2017-09-03T11:21:31.894Z,6.33
2017-09-03T11:24:00.285Z,5.70
2017-09-03T11:26:28.676Z,6.17
2017-09-03T11:28:57.307Z,5.30
2017-09-03T11:31:25.779Z,5.53
2017-09-03T11:33:54.263Z,5.30
2017-09-03T11:36:22.658Z,4.87
2017-09-03T11:38:51.052Z,5.27
2017-09-03T11:41:19.467Z,4.70
2017-09-03T11:43:47.982Z,4.50
2017-09-03T11:46:16.357Z,4.23
2017-09-03T11:48:44.804Z,4.63
2017-09-03T11:51:13.272Z,4.93
2017-09-03T11:53:41.716Z,6.10
2017-09-03T11:56:10.158Z,6.30
2017-09-03T11:58:38.742Z,5.00
2017-09-03T12:01:07.127Z,4.13
2017-09-03T12:03:35.513Z,4.70
2017-09-03T12:06:03.939Z,4.50
2017-09-03T12:08:32.326Z,3.60
2017-09-03T12:11:00.734Z,4.77
2017-09-03T12:13:29.140Z,4.10
2017-09-03T12:15:57.522Z,4.90
2017-09-03T12:18:25.897Z,4.63
2017-09-03T12:20:54.322Z,4.13
2017-09-03T12:23:22.766Z,4.40
2017-09-03T12:25:51.163Z,3.80
2017-09-03T12:28:19.592Z,4.20
2017-09-03T12:30:47.972Z,3.60
2017-09-03T12:33:16.429Z,3.67
2017-09-03T12:35:44.884Z,3.60
2017-09-03T12:38:13.294Z,3.70
2017-09-03T12:40:41.696Z,3.80
2017-09-03T12:43:10.117Z,3.97
2017-09-03T12:45:38.626Z,4.33
2017-09-03T12:48:07.039Z,4.30
2017-09-03T12:50:35.567Z,4.10
2017-09-03T12:53:10.295Z,4.63
2017-09-03T12:55:38.809Z,5.30
2017-09-03T12:58:07.205Z,4.23
2017-09-03T13:00:35.947Z,3.83
2017-09-03T13:03:04.370Z,3.67
2017-09-03T13:05:32.770Z,4.23
2017-09-03T13:08:01.225Z,4.37
2017-09-03T13:10:29.706Z,4.03
2017-09-03T13:12:58.095Z,4.00
2017-09-03T13:15:26.481Z,4.50
2017-09-03T13:17:54.967Z,4.30
2017-09-03T13:20:23.448Z,3.70
2017-09-03T13:22:51.849Z,4.20
2017-09-03T13:25:20.325Z,3.87
2017-09-03T13:27:48.714Z,3.40
2017-09-03T13:30:17.108Z,3.50
2017-09-03T13:32:45.546Z,3.40
2017-09-03T13:35:14.002Z,4.10
2017-09-03T13:37:42.404Z,3.73
2017-09-03T13:40:10.830Z,3.43
2017-09-03T13:42:39.276Z,3.30
2017-09-03T13:45:07.734Z,3.80
2017-09-03T13:47:36.166Z,2.80
2017-09-03T13:50:04.620Z,3.67
2017-09-03T13:52:33.006Z,3.33
2017-09-03T13:55:01.431Z,3.40
2017-09-03T13:57:29.903Z,3.33
2017-09-03T13:59:58.432Z,3.90
2017-09-03T14:02:26.856Z,3.80
2017-09-03T14:04:55.257Z,3.50
2017-09-03T14:07:23.666Z,3.17
2017-09-03T14:09:52.087Z,3.10
2017-09-03T14:12:20.489Z,3.60
2017-09-03T14:14:48.981Z,3.27
2017-09-03T14:17:17.422Z,3.20
2017-09-03T14:19:45.848Z,2.93
2017-09-03T14:22:14.348Z,3.60
2017-09-03T14:24:42.806Z,2.80
2017-09-03T14:27:11.234Z,3.20
2017-09-03T14:29:39.636Z,3.80
2017-09-03T14:32:08.091Z,3.90
2017-09-03T14:34:36.558Z,3.40
2017-09-03T14:37:04.977Z,3.30
2017-09-03T14:39:33.525Z,2.97
2017-09-03T14:42:01.929Z,2.63
2017-09-03T14:44:30.360Z,2.90
2017-09-03T14:46:58.819Z,3.30
2017-09-03T14:49:27.335Z,3.37
2017-09-03T14:51:55.778Z,3.00
2017-09-03T14:54:24.191Z,3.20
2017-09-03T14:56:52.636Z,3.13
2017-09-03T14:59:21.050Z,3.40
2017-09-03T15:01:49.465Z,3.40
2017-09-03T15:04:17.932Z,4.70
2017-09-03T15:06:46.322Z,4.20
2017-09-03T15:09:14.715Z,3.87
2017-09-03T15:11:43.166Z,3.10
2017-09-03T15:14:11.723Z,3.43
2017-09-03T15:16:40.114Z,3.40
2017-09-03T15:19:08.525Z,2.97
2017-09-03T15:21:36.929Z,3.53
2017-09-03T15:24:05.363Z,3.50
2017-09-03T15:26:33.799Z,3.57
2017-09-03T15:29:02.350Z,3.60
2017-09-03T15:31:30.752Z,3.90
2017-09-03T15:33:59.209Z,3.80
2017-09-03T15:36:27.666Z,3.60
2017-09-03T15:38:56.106Z,3.20
2017-09-03T15:41:24.555Z,3.43
2017-09-03T15:43:52.986Z,3.80
2017-09-03T15:46:21.393Z,3.97
2017-09-03T15:48:49.886Z,3.80
2017-09-03T15:51:18.359Z,3.87
2017-09-03T15:53:46.865Z,3.83
2017-09-03T15:56:15.336Z,3.40
2017-09-03T15:58:43.745Z,3.10
2017-09-03T16:01:12.162Z,3.13
2017-09-03T16:03:40.633Z,3.37
2017-09-03T16:06:09.069Z,3.93
2017-09-03T16:08:37.486Z,3.50
2017-09-03T16:11:05.874Z,2.90
2017-09-03T16:13:34.344Z,11.40
2017-09-03T16:16:02.780Z,5.40
2017-09-03T16:18:31.181Z,4.87
2017-09-03T16:20:59.638Z,3.20
2017-09-03T16:23:28.065Z,3.47
2017-09-03T16:25:56.453Z,4.07
2017-09-03T16:28:24.918Z,4.30
2017-09-03T16:30:53.411Z,3.70
2017-09-03T16:35:56.413Z,3.87
2017-09-03T16:38:24.830Z,3.67
2017-09-03T16:40:53.298Z,5.03
2017-09-03T16:43:21.722Z,10.53
2017-09-03T16:45:50.107Z,6.00
2017-09-03T16:48:18.700Z,5.93
2017-09-03T16:50:47.199Z,4.00
2017-09-03T16:53:15.677Z,3.50
2017-09-03T16:55:44.203Z,3.97
2017-09-03T16:58:12.645Z,3.50
2017-09-03T17:00:41.061Z,4.10
2017-09-03T17:03:09.532Z,3.67
2017-09-03T17:05:37.997Z,4.00
2017-09-03T17:08:06.430Z,3.30
2017-09-03T17:10:34.859Z,3.00
2017-09-03T17:13:03.338Z,3.07
2017-09-03T17:15:31.853Z,3.40
2017-09-03T17:18:00.285Z,3.40
2017-09-03T17:20:28.800Z,3.70
2017-09-03T17:22:57.228Z,3.63
2017-09-03T17:25:25.635Z,3.73
2017-09-03T17:27:54.036Z,3.53
2017-09-03T17:30:23.253Z,3.00
2017-09-03T17:32:51.816Z,3.40
2017-09-03T17:35:22.602Z,3.10
2017-09-03T17:37:51.910Z,3.30
2017-09-03T17:40:20.667Z,3.83
2017-09-03T17:42:57.567Z,3.90
2017-09-03T17:45:26.143Z,6.20
2017-09-03T17:47:54.649Z,4.20
2017-09-03T17:50:23.138Z,3.73
2017-09-03T17:52:51.627Z,3.83
2017-09-03T17:55:20.045Z,4.17
2017-09-03T17:57:48.488Z,4.17
2017-09-03T18:00:16.930Z,3.70
2017-09-03T18:02:45.521Z,3.73
2017-09-03T18:05:14.013Z,3.70
2017-09-03T18:07:42.516Z,3.63
2017-09-03T18:10:10.976Z,4.40
2017-09-03T18:12:39.397Z,3.50
2017-09-03T18:15:08.027Z,3.50
2017-09-03T18:17:36.500Z,6.03
2017-09-03T18:20:05.099Z,5.23
2017-09-03T18:22:34.530Z,4.00
2017-09-03T18:25:03.045Z,4.40
2017-09-03T18:27:31.832Z,6.00
2017-09-03T18:30:00.316Z,5.90
2017-09-03T18:32:29.032Z,6.70
2017-09-03T18:34:57.720Z,6.80
2017-09-03T18:37:40.980Z,7.63
2017-09-03T18:40:12.688Z,6.80
2017-09-03T18:42:41.152Z,7.30
2017-09-03T18:45:09.591Z,7.00
2017-09-03T18:47:38.053Z,7.40
2017-09-03T18:50:09.034Z,6.90
2017-09-03T18:52:45.963Z,7.10
2017-09-03T18:55:14.437Z,6.80
2017-09-03T18:57:50.121Z,5.97
2017-09-03T19:00:19.071Z,6.40
2017-09-03T19:02:51.917Z,6.03
2017-09-03T19:05:22.289Z,6.60
2017-09-03T19:07:50.784Z,6.70
2017-09-03T19:10:19.271Z,6.47
2017-09-03T19:12:47.700Z,6.67
2017-09-03T19:15:16.148Z,8.13
2017-09-03T19:17:45.615Z,6.80
2017-09-03T19:20:14.162Z,7.50
2017-09-03T19:22:42.667Z,7.43
2017-09-03T19:25:11.143Z,7.87
2017-09-03T19:27:39.619Z,7.87
2017-09-03T19:30:08.050Z,6.63
2017-09-03T19:32:36.455Z,6.20
2017-09-03T19:35:04.918Z,6.53
2017-09-03T19:37:33.335Z,6.10
2017-09-03T19:40:01.974Z,7.17
2017-09-03T19:42:30.380Z,6.67
2017-09-03T19:44:58.854Z,5.57
2017-09-03T19:47:27.427Z,6.90
2017-09-03T19:49:55.848Z,6.27
2017-09-03T19:52:24.305Z,6.30
2017-09-03T19:54:52.721Z,6.50
2017-09-03T19:57:21.139Z,6.77
2017-09-03T19:59:49.716Z,6.23
2017-09-03T20:02:18.199Z,6.27
2017-09-03T20:04:46.606Z,5.60
2017-09-03T20:07:15.006Z,7.10
2017-09-03T20:09:43.468Z,5.63
2017-09-03T20:12:11.911Z,6.87
2017-09-03T20:14:40.440Z,6.47
2017-09-03T20:17:08.839Z,5.93
2017-09-03T20:19:37.474Z,6.50
2017-09-03T20:22:05.921Z,6.37
2017-09-03T20:24:34.369Z,5.97
2017-09-03T20:27:02.784Z,6.00
2017-09-03T20:29:31.207Z,6.13
2017-09-03T20:31:59.634Z,6.90
2017-09-03T20:34:28.116Z,6.87
2017-09-03T20:36:56.511Z,6.30
2017-09-03T20:39:25.044Z,6.33
2017-09-03T20:41:53.480Z,7.90
2017-09-03T20:44:21.891Z,8.00
2017-09-03T20:46:50.312Z,8.30
2017-09-03T20:49:18.777Z,7.53
2017-09-03T20:51:47.202Z,8.20
2017-09-03T20:54:16.640Z,7.80
2017-09-03T20:56:45.032Z,8.33
2017-09-03T20:59:13.452Z,7.90
2017-09-03T21:01:41.901Z,8.70
2017-09-03T21:04:10.401Z,8.87
2017-09-03T21:06:38.863Z,8.63
2017-09-03T21:09:07.327Z,8.57
2017-09-03T21:11:35.732Z,8.90
2017-09-03T21:14:04.144Z,9.50
2017-09-03T21:16:32.621Z,9.63
2017-09-03T21:19:01.067Z,9.20
2017-09-03T21:21:29.499Z,11.27
2017-09-03T21:23:57.951Z,11.50
2017-09-03T21:26:26.365Z,11.30
2017-09-03T21:28:54.814Z,11.60
2017-09-03T21:31:23.294Z,12.00
2017-09-03T21:33:51.706Z,11.77
2017-09-03T21:36:20.169Z,12.07
2017-09-03T21:38:48.597Z,11.50
2017-09-03T21:41:17.013Z,11.60
2017-09-03T21:43:45.458Z,12.60
2017-09-03T21:46:13.923Z,12.30
2017-09-03T21:48:42.379Z,12.63
2017-09-03T21:51:10.802Z,12.00
2017-09-03T21:53:39.327Z,12.77
2017-09-03T21:56:07.925Z,13.37
2017-09-03T21:58:36.509Z,13.43
2017-09-03T22:01:04.912Z,12.07
2017-09-03T22:03:33.305Z,13.03
2017-09-03T22:06:01.774Z,12.40
2017-09-03T22:08:30.185Z,12.40
2017-09-03T22:10:59.084Z,12.37
2017-09-03T22:13:27.524Z,40.43
2017-09-03T22:15:56.003Z,38.43
2017-09-03T22:18:24.406Z,18.60
2017-09-03T22:20:52.834Z,17.20
2017-09-03T22:23:21.339Z,16.57
2017-09-03T22:25:49.803Z,15.47
2017-09-03T22:28:18.209Z,14.13
2017-09-03T22:30:46.642Z,14.70
2017-09-03T22:33:15.113Z,13.37
2017-09-03T22:35:43.794Z,14.00
2017-09-03T22:38:12.274Z,13.90
2017-09-03T22:40:40.679Z,13.40
2017-09-03T22:43:09.080Z,13.50
2017-09-03T22:45:37.574Z,13.10
2017-09-03T22:48:06.219Z,14.93
2017-09-03T22:50:34.642Z,14.83
2017-09-03T22:53:03.064Z,13.40
2017-09-03T22:55:31.520Z,13.03
2017-09-03T22:58:00.001Z,14.37
2017-09-03T23:00:28.989Z,15.30
2017-09-03T23:02:57.407Z,13.27
2017-09-03T23:05:25.872Z,14.67
2017-09-03T23:07:54.258Z,14.93
2017-09-03T23:10:22.655Z,14.10
2017-09-03T23:12:51.116Z,14.60
2017-09-03T23:15:19.566Z,16.10
2017-09-03T23:17:48.018Z,14.30
2017-09-03T23:20:16.513Z,14.93
2017-09-03T23:22:44.913Z,14.30
2017-09-03T23:25:13.364Z,15.50
2017-09-03T23:27:41.786Z,14.50
2017-09-03T23:30:10.178Z,16.47
2017-09-03T23:32:38.566Z,15.67
2017-09-03T23:35:06.998Z,13.57
2017-09-03T23:37:35.422Z,14.07
2017-09-03T23:40:03.994Z,14.07
2017-09-03T23:42:32.493Z,14.90
2017-09-03T23:45:00.900Z,15.97
2017-09-03T23:47:29.300Z,14.87
2017-09-03T23:49:58.790Z,14.00
2017-09-03T23:52:27.239Z,14.50
2017-09-03T23:54:55.785Z,15.77
2017-09-03T23:57:24.253Z,14.47
2017-09-03T23:59:52.734Z,16.23
